Time;durP1;ratioP1;P1;durP2;ratioP2;P2;SDS_P1;SDS_P2;PMS_P1;PMS_P2;Temp;Humidity;BMP_temperature;BMP_pressure;BME280_temperature;BME280_humidity;BME280_pressure;Samples;Min_cycle;Max_cycle;Signal;HPM_P1;HPM_P2
2022/10/25 00:01:14;;;;;;;3.47;1.50;;;17.90;62.20;;;;;;5074195;28;20457;-89
2022/10/25 00:03:41;;;;;;;2.40;1.20;;;18.00;61.60;;;;;;5059252;28;20445;-87
2022/10/25 00:06:09;;;;;;;1.70;1.40;;;18.00;61.90;;;;;;5074046;28;20466;-88
2022/10/25 00:08:36;;;;;;;2.27;1.40;;;18.00;61.70;;;;;;5071724;28;20514;-87
2022/10/25 00:11:03;;;;;;;4.23;1.20;;;17.80;62.10;;;;;;5072934;28;20448;-87
2022/10/25 00:13:31;;;;;;;3.00;1.30;;;17.70;62.40;;;;;;5074226;28;20459;-88
2022/10/25 00:15:58;;;;;;;2.93;1.10;;;17.60;62.80;;;;;;5055015;28;20817;-88
2022/10/25 00:18:26;;;;;;;2.40;1.23;;;17.60;62.40;;;;;;5072535;28;20535;-87
2022/10/25 00:20:54;;;;;;;1.50;1.40;;;17.50;62.70;;;;;;5063387;28;20459;-87
2022/10/25 00:23:20;;;;;;;3.10;1.80;;;17.30;63.50;;;;;;5071088;28;20448;-88
2022/10/25 00:25:47;;;;;;;2.97;1.40;;;17.40;63.60;;;;;;5076679;28;20475;-87
2022/10/25 00:28:14;;;;;;;1.40;1.30;;;17.50;62.80;;;;;;5071941;28;20467;-87
2022/10/25 00:30:41;;;;;;;4.40;1.87;;;17.60;62.70;;;;;;5070796;28;20451;-87
2022/10/25 00:33:08;;;;;;;1.33;1.20;;;17.50;62.60;;;;;;5062798;28;20460;-88
2022/10/25 00:35:37;;;;;;;2.10;1.03;;;17.50;62.50;;;;;;5072739;28;20459;-88
2022/10/25 00:38:04;;;;;;;4.73;1.13;;;17.50;63.00;;;;;;5073657;28;20456;-87
2022/10/25 00:40:31;;;;;;;1.30;1.17;;;17.40;62.80;;;;;;5071853;28;20930;-88
2022/10/25 00:42:58;;;;;;;4.93;1.30;;;17.40;63.00;;;;;;5093267;27;20444;-88
2022/10/25 00:45:27;;;;;;;1.43;1.10;;;17.40;62.70;;;;;;5062407;28;20510;-87
2022/10/25 00:48:00;;;;;;;2.03;1.37;;;17.40;62.40;;;;;;5072066;28;20481;-86
2022/10/25 00:50:42;;;;;;;1.20;1.10;;;17.30;62.80;;;;;;5063777;28;20535;-87
2022/10/25 00:53:12;;;;;;;2.17;1.17;;;17.30;62.90;;;;;;5072575;28;20563;-87
2022/10/25 00:55:44;;;;;;;1.53;1.00;;;17.10;63.70;;;;;;5073762;28;20527;-88
2022/10/25 00:58:16;;;;;;;2.70;1.30;;;17.00;63.90;;;;;;5057223;28;20532;-88
2022/10/25 01:00:45;;;;;;;2.37;1.10;;;17.10;63.50;;;;;;5073689;28;20440;-87
2022/10/25 01:03:13;;;;;;;6.17;1.33;;;17.20;63.20;;;;;;5056958;28;20463;-87
2022/10/25 01:05:43;;;;;;;1.60;1.23;;;17.20;63.20;;;;;;5077984;28;20490;-88
2022/10/25 01:08:10;;;;;;;1.63;1.13;;;17.10;63.40;;;;;;5070147;28;20470;-89
2022/10/25 01:10:38;;;;;;;2.03;1.20;;;17.00;63.50;;;;;;5075785;28;20451;-88
2022/10/25 01:13:05;;;;;;;2.53;1.10;;;17.20;63.30;;;;;;5072251;28;20470;-88
2022/10/25 01:15:39;;;;;;;2.63;1.03;;;17.30;62.80;;;;;;5076544;28;20468;-88
2022/10/25 01:18:14;;;;;;;5.90;1.23;;;17.20;62.70;;;;;;5047756;28;21130;-89
2022/10/25 01:21:21;;;;;;;1.90;1.20;;;17.20;62.60;;;;;;5056799;28;20465;-88
2022/10/25 01:24:07;;;;;;;1.47;0.90;;;17.20;63.00;;;;;;5024724;28;20809;-88
2022/10/25 01:27:06;;;;;;;2.23;1.00;;;17.10;63.00;;;;;;5072349;28;20447;-88
2022/10/25 01:30:03;;;;;;;2.90;1.10;;;17.20;62.60;;;;;;5071345;28;20456;-87
2022/10/25 01:32:40;;;;;;;2.40;1.20;;;17.20;62.60;;;;;;5038297;28;20454;-87
2022/10/25 01:35:13;;;;;;;4.93;1.30;;;17.20;62.40;;;;;;5070242;28;20478;-88
2022/10/25 01:37:48;;;;;;;2.20;1.17;;;17.30;62.10;;;;;;5054442;28;20516;-87
2022/10/25 01:40:23;;;;;;;2.70;1.00;;;17.20;61.90;;;;;;5073222;28;20448;-87
2022/10/25 01:43:02;;;;;;;2.43;1.10;;;17.20;62.30;;;;;;5070973;28;20969;-87
2022/10/25 01:45:35;;;;;;;2.00;1.00;;;17.20;62.40;;;;;;5078574;28;20483;-87
2022/10/25 01:48:09;;;;;;;2.27;1.00;;;17.30;61.80;;;;;;5056552;28;21078;-87
2022/10/25 01:50:41;;;;;;;2.73;1.03;;;17.30;61.80;;;;;;5071131;28;20540;-88
2022/10/25 01:53:09;;;;;;;1.43;1.20;;;17.50;61.40;;;;;;5070836;28;20451;-88
2022/10/25 01:55:42;;;;;;;1.40;1.13;;;17.40;61.20;;;;;;5074745;28;20468;-87
2022/10/25 01:58:21;;;;;;;1.97;0.90;;;17.50;61.10;;;;;;5073485;28;20981;-87
2022/10/25 02:00:57;;;;;;;3.57;0.90;;;17.50;60.40;;;;;;5073321;28;20443;-88
2022/10/25 02:03:32;;;;;;;1.10;1.00;;;17.30;60.80;;;;;;5073823;28;20458;-86
2022/10/25 02:06:12;;;;;;;2.90;1.43;;;17.20;61.60;;;;;;5070478;28;20475;-87
2022/10/25 02:08:41;;;;;;;1.13;0.90;;;16.90;62.60;;;;;;5055299;28;20459;-87
2022/10/25 02:11:17;;;;;;;2.00;1.33;;;17.00;63.10;;;;;;5073501;28;20965;-87
2022/10/25 02:13:53;;;;;;;2.00;1.10;;;17.00;62.20;;;;;;5076684;28;20543;-87
2022/10/25 02:16:24;;;;;;;5.43;0.90;;;17.00;62.30;;;;;;5070038;28;20487;-88
2022/10/25 02:18:56;;;;;;;1.10;1.00;;;17.20;62.00;;;;;;5069695;28;20991;-88
2022/10/25 02:21:26;;;;;;;3.10;1.20;;;17.10;62.00;;;;;;5070711;28;20455;-88
2022/10/25 02:23:54;;;;;;;1.00;0.83;;;17.10;61.90;;;;;;5071471;28;20448;-86
2022/10/25 02:26:22;;;;;;;2.20;1.10;;;17.00;62.30;;;;;;5055828;28;20472;-88
2022/10/25 02:28:50;;;;;;;1.57;1.17;;;17.00;62.30;;;;;;5070382;28;20480;-87
2022/10/25 02:31:20;;;;;;;5.40;1.20;;;17.00;62.70;;;;;;5070564;28;20456;-86
2022/10/25 02:33:48;;;;;;;6.67;1.07;;;16.90;62.50;;;;;;5072205;28;20444;-87
2022/10/25 02:36:19;;;;;;;2.03;1.33;;;16.80;63.10;;;;;;5070637;28;20500;-87
2022/10/25 02:38:48;;;;;;;3.03;1.00;;;16.80;63.00;;;;;;5068103;28;20448;-87
2022/10/25 02:41:14;;;;;;;4.60;1.00;;;16.80;63.00;;;;;;5056372;28;20832;-87
2022/10/25 02:43:41;;;;;;;3.37;1.10;;;16.60;63.50;;;;;;5074750;28;20938;-88
2022/10/25 02:46:11;;;;;;;0.87;0.80;;;16.60;63.70;;;;;;5072228;28;20479;-87
2022/10/25 02:48:38;;;;;;;0.90;0.80;;;16.70;63.70;;;;;;5071284;28;20463;-87
2022/10/25 02:51:06;;;;;;;1.30;1.13;;;16.90;63.00;;;;;;5068716;28;20456;-88
2022/10/25 02:53:34;;;;;;;1.10;1.00;;;16.90;62.90;;;;;;5059863;28;20460;-88
2022/10/25 02:56:02;;;;;;;1.33;1.23;;;16.80;63.10;;;;;;5061569;28;20472;-87
2022/10/25 02:58:31;;;;;;;2.17;1.10;;;16.90;63.00;;;;;;5054817;28;20453;-88
2022/10/25 03:00:59;;;;;;;1.67;1.10;;;16.70;63.40;;;;;;5070629;28;20452;-87
2022/10/25 03:03:26;;;;;;;1.30;0.97;;;16.70;63.70;;;;;;5068043;28;20452;-87
2022/10/25 03:05:54;;;;;;;4.00;1.20;;;16.80;63.40;;;;;;5055285;28;20480;-87
2022/10/25 03:08:21;;;;;;;4.40;1.00;;;16.70;63.80;;;;;;5070769;28;20559;-87
2022/10/25 03:10:50;;;;;;;3.10;1.40;;;16.90;63.20;;;;;;5057728;28;20444;-88
2022/10/25 03:13:17;;;;;;;1.73;1.13;;;16.90;62.90;;;;;;5068879;28;21360;-88
2022/10/25 03:15:44;;;;;;;2.47;1.13;;;16.90;63.30;;;;;;5069247;28;20486;-88
2022/10/25 03:18:12;;;;;;;2.40;1.00;;;16.90;62.90;;;;;;5070606;28;20444;-88
2022/10/25 03:20:39;;;;;;;8.00;1.57;;;17.00;62.90;;;;;;5070588;28;20823;-89
2022/10/25 03:23:06;;;;;;;2.40;1.27;;;16.90;63.10;;;;;;5053244;28;20978;-87
2022/10/25 03:25:33;;;;;;;5.17;0.93;;;16.70;63.70;;;;;;5049377;28;20479;-87
2022/10/25 03:28:02;;;;;;;2.17;1.10;;;16.60;64.20;;;;;;5066806;28;20465;-88
2022/10/25 03:30:30;;;;;;;2.47;1.13;;;16.60;65.20;;;;;;5069033;28;20528;-87
2022/10/25 03:32:57;;;;;;;3.20;1.03;;;16.60;64.70;;;;;;5073713;28;20558;-87
2022/10/25 03:35:25;;;;;;;3.00;0.97;;;16.70;65.20;;;;;;5067927;28;20471;-87
2022/10/25 03:37:52;;;;;;;3.87;1.17;;;16.60;64.70;;;;;;5071394;28;20452;-88
2022/10/25 03:40:21;;;;;;;0.90;0.80;;;16.70;64.60;;;;;;5075405;28;20456;-88
2022/10/25 03:42:48;;;;;;;1.30;1.07;;;16.70;64.40;;;;;;5044586;28;20448;-88
2022/10/25 03:45:16;;;;;;;1.40;1.00;;;16.70;64.40;;;;;;5072203;28;20478;-87
2022/10/25 03:47:43;;;;;;;2.10;1.53;;;16.80;64.20;;;;;;5052802;28;20436;-87
2022/10/25 03:50:10;;;;;;;3.43;1.60;;;17.00;63.90;;;;;;5056734;28;20468;-89
2022/10/25 03:52:38;;;;;;;1.30;1.10;;;16.80;64.00;;;;;;5072980;28;20452;-88
2022/10/25 03:55:06;;;;;;;4.03;1.30;;;16.70;64.40;;;;;;5091105;27;20464;-89
2022/10/25 03:57:33;;;;;;;1.63;1.07;;;16.70;64.30;;;;;;5071605;28;20455;-88
2022/10/25 04:00:00;;;;;;;5.30;1.17;;;16.90;64.30;;;;;;5075021;28;20548;-89
2022/10/25 04:02:29;;;;;;;1.30;1.20;;;16.80;64.50;;;;;;5074523;28;21084;-89
2022/10/25 04:04:56;;;;;;;7.63;1.23;;;16.70;64.60;;;;;;5073025;28;21134;-88
2022/10/25 04:07:23;;;;;;;11.13;1.57;;;16.90;64.40;;;;;;5074849;28;20456;-88
2022/10/25 04:09:50;;;;;;;2.40;1.20;;;17.00;63.90;;;;;;5055737;28;20548;-87
2022/10/25 04:12:17;;;;;;;2.30;1.23;;;17.20;63.50;;;;;;5049004;28;20829;-88
2022/10/25 04:14:44;;;;;;;3.30;1.30;;;17.30;63.10;;;;;;5074204;28;20463;-87
2022/10/25 04:17:11;;;;;;;2.07;1.63;;;17.30;62.60;;;;;;5073446;28;20606;-88
2022/10/25 04:19:39;;;;;;;1.57;0.90;;;17.30;62.70;;;;;;5061317;28;20444;-88
2022/10/25 04:22:06;;;;;;;1.33;1.10;;;17.20;63.90;;;;;;5073768;28;20535;-88
2022/10/25 04:24:33;;;;;;;5.20;1.33;;;17.10;63.50;;;;;;5072495;28;20472;-89
2022/10/25 04:27:00;;;;;;;2.20;1.80;;;17.10;63.40;;;;;;5056510;28;20452;-87
2022/10/25 04:29:27;;;;;;;4.00;1.27;;;17.10;63.60;;;;;;5076542;28;20477;-88
2022/10/25 04:31:54;;;;;;;6.97;1.40;;;17.00;63.60;;;;;;5084484;28;20456;-89
2022/10/25 04:34:21;;;;;;;3.77;1.30;;;17.00;63.90;;;;;;5073252;28;20448;-89
2022/10/25 04:36:49;;;;;;;3.17;1.63;;;17.00;63.90;;;;;;5081926;28;20448;-89
2022/10/25 04:39:16;;;;;;;3.23;2.40;;;17.10;63.50;;;;;;5054432;28;20838;-88
2022/10/25 04:41:43;;;;;;;1.73;1.50;;;17.10;63.70;;;;;;5063938;28;20452;-88
2022/10/25 04:44:10;;;;;;;1.80;1.30;;;17.10;63.80;;;;;;5080899;28;20463;-89
2022/10/25 04:46:37;;;;;;;7.87;1.87;;;17.10;63.60;;;;;;5048252;28;20439;-89
2022/10/25 04:49:04;;;;;;;2.70;1.73;;;17.10;63.20;;;;;;5072604;28;20471;-89
2022/10/25 04:51:31;;;;;;;5.90;1.80;;;17.20;63.40;;;;;;5076332;28;20793;-88
2022/10/25 04:53:59;;;;;;;3.77;2.13;;;17.20;62.80;;;;;;5072663;28;21218;-88
2022/10/25 04:56:28;;;;;;;6.13;2.20;;;17.30;62.70;;;;;;5079783;28;20481;-89
2022/10/25 04:58:55;;;;;;;4.93;2.13;;;17.30;62.10;;;;;;5056811;28;21167;-88
2022/10/25 05:01:22;;;;;;;2.40;2.17;;;17.30;62.10;;;;;;5074735;28;20862;-88
2022/10/25 05:03:49;;;;;;;4.77;1.60;;;17.20;62.50;;;;;;5055498;28;20429;-88
2022/10/25 05:06:19;;;;;;;3.97;1.70;;;17.10;62.80;;;;;;5077428;28;20856;-88
2022/10/25 05:08:48;;;;;;;4.10;1.47;;;17.20;62.60;;;;;;5082346;28;20471;-88
2022/10/25 05:11:19;;;;;;;1.77;1.40;;;17.00;63.00;;;;;;5073576;28;20462;-88
2022/10/25 05:13:46;;;;;;;5.93;1.40;;;17.00;63.50;;;;;;5070686;28;20460;-88
2022/10/25 05:16:19;;;;;;;8.13;1.77;;;17.10;63.20;;;;;;5074640;28;20505;-90
2022/10/25 05:18:46;;;;;;;5.20;1.80;;;16.80;63.90;;;;;;5062515;28;21252;-88
2022/10/25 05:21:15;;;;;;;6.50;1.50;;;16.80;64.10;;;;;;5064004;28;20436;-89
2022/10/25 05:23:42;;;;;;;1.50;1.40;;;16.90;63.80;;;;;;5063242;28;20462;-89
2022/10/25 05:26:11;;;;;;;3.03;1.53;;;16.90;63.80;;;;;;5073054;28;20479;-89
2022/10/25 05:28:43;;;;;;;4.83;2.20;;;17.00;63.70;;;;;;5070602;28;20468;-88
2022/10/25 05:31:14;;;;;;;3.67;2.20;;;17.10;63.60;;;;;;5073333;28;20547;-89
2022/10/25 05:33:43;;;;;;;3.83;1.97;;;17.10;63.30;;;;;;5068949;28;20445;-88
2022/10/25 05:36:11;;;;;;;4.53;1.60;;;17.20;63.00;;;;;;5070766;28;21051;-89
2022/10/25 05:38:38;;;;;;;3.90;1.57;;;17.20;62.90;;;;;;5056766;28;20448;-89
2022/10/25 05:41:06;;;;;;;3.73;2.20;;;17.20;62.80;;;;;;5073004;28;20552;-89
2022/10/25 05:43:33;;;;;;;2.90;1.77;;;17.00;63.10;;;;;;5079702;28;20497;-88
2022/10/25 05:46:06;;;;;;;4.40;2.10;;;17.10;63.00;;;;;;5061618;28;20485;-89
2022/10/25 05:48:35;;;;;;;3.80;1.80;;;17.00;62.90;;;;;;5055782;28;20460;-89
2022/10/25 05:51:13;;;;;;;5.20;2.33;;;17.10;63.10;;;;;;5074997;28;21123;-89
2022/10/25 05:53:45;;;;;;;4.57;2.20;;;17.20;62.40;;;;;;5071843;28;20443;-89
2022/10/25 05:56:13;;;;;;;4.90;2.03;;;17.20;62.00;;;;;;5057283;28;20471;-89
2022/10/25 05:58:40;;;;;;;4.63;2.47;;;17.20;62.30;;;;;;5061076;28;20488;-89
2022/10/25 06:01:09;;;;;;;4.87;3.13;;;17.30;62.00;;;;;;5045920;28;20877;-90
2022/10/25 06:03:37;;;;;;;7.10;3.40;;;17.30;61.90;;;;;;5073193;28;20452;-89
2022/10/25 06:06:06;;;;;;;5.90;4.10;;;17.30;62.00;;;;;;5052017;28;20547;-90
2022/10/25 06:08:33;;;;;;;8.53;3.30;;;17.00;62.80;;;;;;5038489;28;21238;-89
2022/10/25 06:11:06;;;;;;;4.87;3.53;;;16.90;63.10;;;;;;5075189;28;20453;-90
2022/10/25 06:13:33;;;;;;;9.43;4.83;;;17.00;63.50;;;;;;5054320;28;21032;-90
2022/10/25 06:16:04;;;;;;;6.90;4.43;;;17.00;63.40;;;;;;5072961;28;21010;-89
2022/10/25 06:18:32;;;;;;;16.70;6.00;;;17.10;63.20;;;;;;5074068;28;20451;-90
2022/10/25 06:21:02;;;;;;;14.27;8.57;;;17.00;62.80;;;;;;5064268;28;20448;-89
2022/10/25 06:23:30;;;;;;;7.77;5.20;;;17.00;63.10;;;;;;5070433;28;20513;-88
2022/10/25 06:26:01;;;;;;;5.87;3.70;;;17.10;63.20;;;;;;5069735;28;20522;-89
2022/10/25 06:28:30;;;;;;;4.53;3.00;;;17.10;62.40;;;;;;5069093;28;20443;-88
2022/10/25 06:31:01;;;;;;;4.87;3.50;;;16.90;64.00;;;;;;5075263;28;20448;-89
2022/10/25 06:33:28;;;;;;;8.93;2.80;;;16.80;63.80;;;;;;5052950;28;20445;-88
2022/10/25 06:35:57;;;;;;;3.60;2.33;;;16.80;63.40;;;;;;5073599;28;20479;-89
2022/10/25 06:38:25;;;;;;;7.37;2.70;;;16.70;64.10;;;;;;5076182;28;20882;-87
2022/10/25 06:40:52;;;;;;;3.77;2.87;;;16.80;64.50;;;;;;5044544;28;20458;-90
2022/10/25 06:43:19;;;;;;;4.53;2.90;;;16.90;64.10;;;;;;5072328;28;20456;-89
2022/10/25 06:45:46;;;;;;;8.03;2.50;;;16.70;64.20;;;;;;5070667;28;20479;-89
2022/10/25 06:48:13;;;;;;;6.70;2.60;;;16.70;64.60;;;;;;5074304;28;20446;-89
2022/10/25 06:50:40;;;;;;;3.40;2.50;;;16.80;64.00;;;;;;5074180;28;20479;-89
2022/10/25 06:53:09;;;;;;;14.40;3.40;;;16.80;63.60;;;;;;5046338;28;20459;-90
2022/10/25 06:55:36;;;;;;;5.63;3.33;;;16.80;63.50;;;;;;5072635;28;20470;-89
2022/10/25 06:58:03;;;;;;;4.80;2.73;;;17.00;63.20;;;;;;5074480;28;20448;-89
2022/10/25 07:00:30;;;;;;;7.00;3.20;;;17.00;63.40;;;;;;5069410;28;20439;-89
2022/10/25 07:02:58;;;;;;;3.30;2.93;;;17.10;63.20;;;;;;5074857;28;20450;-89
2022/10/25 07:05:26;;;;;;;6.80;2.43;;;17.20;63.30;;;;;;5058315;28;20483;-89
2022/10/25 07:07:54;;;;;;;3.97;1.97;;;17.20;63.70;;;;;;5077642;28;20998;-89
2022/10/25 07:10:22;;;;;;;8.30;2.40;;;17.30;63.80;;;;;;5074276;28;20475;-89
2022/10/25 07:12:49;;;;;;;2.37;2.17;;;17.20;63.60;;;;;;5064728;28;20455;-90
2022/10/25 07:15:16;;;;;;;4.23;1.67;;;17.40;63.40;;;;;;5072419;28;20464;-89
2022/10/25 07:17:43;;;;;;;2.50;1.53;;;17.30;64.10;;;;;;5073618;28;20704;-88
2022/10/25 07:20:11;;;;;;;1.70;1.50;;;17.30;65.00;;;;;;5074249;28;20446;-89
2022/10/25 07:22:38;;;;;;;5.23;1.70;;;17.50;65.10;;;;;;5076023;28;20452;-89
2022/10/25 07:25:05;;;;;;;7.83;1.80;;;17.40;65.60;;;;;;5071639;28;20475;-88
2022/10/25 07:27:33;;;;;;;5.30;1.27;;;17.40;65.40;;;;;;5058460;28;20459;-89
2022/10/25 07:30:00;;;;;;;9.23;2.70;;;17.50;65.60;;;;;;5068042;28;20802;-89
2022/10/25 07:32:27;;;;;;;3.43;1.83;;;17.60;65.30;;;;;;5076880;28;20829;-89
2022/10/25 07:34:54;;;;;;;5.33;1.83;;;17.80;65.10;;;;;;5043433;28;20475;-89
2022/10/25 07:37:21;;;;;;;5.17;1.80;;;17.70;65.40;;;;;;5074598;28;20555;-88
2022/10/25 07:39:48;;;;;;;4.30;1.80;;;17.70;65.80;;;;;;5044822;28;20497;-89
2022/10/25 07:42:15;;;;;;;5.07;1.67;;;17.70;65.90;;;;;;5075573;28;20451;-88
2022/10/25 07:44:44;;;;;;;2.53;1.60;;;17.70;65.90;;;;;;5073221;28;20479;-88
2022/10/25 07:47:10;;;;;;;8.10;1.73;;;17.70;65.90;;;;;;5065081;28;20450;-89
2022/10/25 07:49:38;;;;;;;4.10;1.47;;;17.70;66.30;;;;;;5061335;28;20464;-90
2022/10/25 07:52:05;;;;;;;4.30;1.60;;;17.70;66.00;;;;;;5075406;28;20455;-89
2022/10/25 07:54:32;;;;;;;3.57;1.90;;;17.80;66.00;;;;;;5071835;28;20472;-88
2022/10/25 07:57:00;;;;;;;4.03;1.53;;;18.00;65.90;;;;;;5076604;28;20979;-89
2022/10/25 07:59:26;;;;;;;5.20;1.50;;;18.20;65.40;;;;;;5060645;28;20432;-91
2022/10/25 08:01:55;;;;;;;3.60;2.07;;;18.30;65.40;;;;;;5081491;28;20439;-89
2022/10/25 08:04:22;;;;;;;3.53;2.07;;;18.40;65.40;;;;;;5060109;28;20878;-90
2022/10/25 08:06:49;;;;;;;2.10;1.70;;;18.40;65.80;;;;;;5044045;28;20574;-90
2022/10/25 08:09:16;;;;;;;5.30;2.40;;;18.40;66.10;;;;;;5084973;28;20499;-89
2022/10/25 08:11:43;;;;;;;8.40;2.33;;;18.60;66.20;;;;;;5059486;28;20431;-91
2022/10/25 08:14:10;;;;;;;8.17;1.90;;;18.70;66.00;;;;;;5078698;28;20535;-90
2022/10/25 08:16:37;;;;;;;3.67;1.77;;;18.60;67.10;;;;;;5066654;28;21091;-90
2022/10/25 08:19:05;;;;;;;6.33;1.80;;;18.60;67.30;;;;;;5063370;28;20543;-90
2022/10/25 08:21:32;;;;;;;6.20;2.20;;;18.60;66.60;;;;;;5061471;28;20455;-89
2022/10/25 08:23:59;;;;;;;4.50;1.80;;;18.70;66.70;;;;;;5071033;28;20508;-90
2022/10/25 08:26:27;;;;;;;2.27;1.60;;;18.70;66.60;;;;;;5064042;28;20467;-89
2022/10/25 08:28:54;;;;;;;8.57;2.10;;;18.90;66.40;;;;;;5061002;28;20453;-91
2022/10/25 08:31:21;;;;;;;8.00;2.00;;;18.90;66.20;;;;;;5069577;28;20467;-91
2022/10/25 08:33:48;;;;;;;3.73;1.50;;;18.90;66.30;;;;;;5059666;28;20456;-89
2022/10/25 08:36:17;;;;;;;3.10;2.03;;;19.10;66.30;;;;;;5082699;28;20492;-90
2022/10/25 08:38:44;;;;;;;5.77;1.80;;;18.90;66.50;;;;;;5050066;28;20552;-89
2022/10/25 08:41:18;;;;;;;5.73;1.67;;;18.80;66.50;;;;;;5075297;28;20490;-91
2022/10/25 08:44:02;;;;;;;6.60;2.00;;;18.90;66.80;;;;;;5074790;28;20525;-91
2022/10/25 08:46:33;;;;;;;2.80;1.57;;;19.10;67.50;;;;;;5076483;28;20456;-91
2022/10/25 08:49:09;;;;;;;4.43;1.67;;;19.20;66.50;;;;;;5075488;28;20458;-91
2022/10/25 08:51:41;;;;;;;5.83;1.60;;;19.30;65.60;;;;;;5058884;28;20436;-90
2022/10/25 08:54:19;;;;;;;3.70;1.97;;;19.30;65.60;;;;;;5061779;28;20809;-91
2022/10/25 08:56:47;;;;;;;11.70;2.53;;;19.30;65.50;;;;;;5060886;28;20507;-91
2022/10/25 08:59:22;;;;;;;3.13;1.50;;;19.30;66.00;;;;;;5048830;28;20490;-90
2022/10/25 09:01:54;;;;;;;4.90;1.90;;;19.40;66.50;;;;;;5060960;28;20436;-91
2022/10/25 09:04:22;;;;;;;6.40;1.67;;;19.50;66.00;;;;;;5048963;28;20944;-91
2022/10/25 09:06:59;;;;;;;2.87;1.90;;;19.60;65.60;;;;;;5060250;28;20481;-91
2022/10/25 09:09:32;;;;;;;5.00;1.73;;;19.70;65.20;;;;;;5079683;28;20454;-90
2022/10/25 09:12:12;;;;;;;5.40;1.90;;;19.80;64.70;;;;;;5053905;28;20455;-90
2022/10/25 09:14:45;;;;;;;2.10;1.60;;;19.80;64.60;;;;;;5082922;28;20472;-91
2022/10/25 09:17:17;;;;;;;9.20;1.90;;;19.90;64.50;;;;;;5077273;28;20634;-90
2022/10/25 09:19:59;;;;;;;5.50;2.27;;;19.90;64.30;;;;;;5082198;28;20440;-91
2022/10/25 09:22:29;;;;;;;4.30;1.57;;;20.00;64.10;;;;;;5045546;28;20454;-91
2022/10/25 09:25:01;;;;;;;2.60;1.83;;;19.90;62.90;;;;;;5078052;28;20452;-91
2022/10/25 09:27:35;;;;;;;11.60;1.80;;;19.80;63.50;;;;;;5068009;28;20451;-91
2022/10/25 09:30:06;;;;;;;2.17;1.60;;;19.90;64.50;;;;;;5067773;28;20467;-90
2022/10/25 09:32:38;;;;;;;2.40;1.70;;;19.80;64.50;;;;;;5075383;28;20459;-89
2022/10/25 09:35:12;;;;;;;5.03;1.73;;;19.90;63.50;;;;;;5076310;28;20465;-90
2022/10/25 09:37:45;;;;;;;4.07;1.60;;;19.90;64.10;;;;;;5061607;28;20448;-90
2022/10/25 09:40:17;;;;;;;4.63;1.40;;;19.90;64.10;;;;;;5078132;28;20993;-90
2022/10/25 09:42:49;;;;;;;4.40;1.20;;;20.00;63.30;;;;;;5075318;28;20451;-90
2022/10/25 09:45:22;;;;;;;8.93;1.90;;;20.00;63.00;;;;;;5073177;28;20592;-90
2022/10/25 09:47:56;;;;;;;8.40;1.70;;;20.10;63.10;;;;;;5087146;28;20444;-90
2022/10/25 09:50:26;;;;;;;3.00;1.97;;;20.10;62.80;;;;;;5067064;28;20515;-89
2022/10/25 09:53:05;;;;;;;2.90;1.70;;;20.10;63.10;;;;;;5040010;28;20466;-90
2022/10/25 09:55:39;;;;;;;5.47;1.57;;;20.00;62.90;;;;;;5073050;28;20465;-91
2022/10/25 09:58:09;;;;;;;2.83;1.60;;;20.00;62.80;;;;;;5060236;28;20561;-90
2022/10/25 10:00:39;;;;;;;4.30;2.00;;;19.90;62.30;;;;;;5061927;28;20432;-90
2022/10/25 10:03:08;;;;;;;2.73;1.60;;;19.90;62.70;;;;;;5078891;28;20487;-89
2022/10/25 10:05:37;;;;;;;5.13;2.00;;;20.00;62.50;;;;;;5075434;28;21286;-90
2022/10/25 10:08:06;;;;;;;3.70;1.60;;;20.00;62.40;;;;;;5079738;28;20444;-91
2022/10/25 10:10:35;;;;;;;5.10;1.70;;;20.10;62.30;;;;;;5079339;28;20494;-90
2022/10/25 10:13:06;;;;;;;4.03;1.63;;;20.20;62.20;;;;;;5074941;28;21262;-89
2022/10/25 10:15:38;;;;;;;6.83;1.77;;;20.40;62.00;;;;;;5072327;28;20467;-89
2022/10/25 10:18:23;;;;;;;6.70;1.80;;;20.40;62.00;;;;;;5057898;28;21064;-90
2022/10/25 10:21:00;;;;;;;5.53;1.50;;;20.50;62.30;;;;;;5076364;28;20454;-89
2022/10/25 10:23:31;;;;;;;4.50;1.60;;;20.60;62.10;;;;;;5064393;28;20963;-89
2022/10/25 10:26:02;;;;;;;1.67;1.57;;;20.50;61.30;;;;;;5056184;28;20494;-90
2022/10/25 10:28:29;;;;;;;3.60;1.60;;;20.40;60.30;;;;;;5074369;28;20457;-90
2022/10/25 10:30:58;;;;;;;6.23;1.60;;;20.50;60.90;;;;;;5080508;28;20483;-89
2022/10/25 10:33:28;;;;;;;6.60;1.90;;;20.50;60.80;;;;;;5064256;28;20811;-90
2022/10/25 10:35:55;;;;;;;3.33;1.33;;;20.50;60.30;;;;;;5064884;28;20464;-89
2022/10/25 10:38:25;;;;;;;6.73;1.70;;;20.60;60.10;;;;;;5077527;28;20451;-90
2022/10/25 10:41:12;;;;;;;3.70;1.50;;;20.50;59.60;;;;;;5049183;28;20482;-90
2022/10/25 10:43:39;;;;;;;5.63;1.83;;;20.50;59.20;;;;;;5076653;28;20512;-90
2022/10/25 10:46:11;;;;;;;3.70;1.43;;;20.40;59.30;;;;;;5076159;28;20464;-89
2022/10/25 10:48:41;;;;;;;6.10;1.60;;;20.40;59.70;;;;;;5072459;28;20431;-89
2022/10/25 10:51:09;;;;;;;3.57;1.83;;;20.30;59.60;;;;;;5065004;28;20466;-89
2022/10/25 10:53:36;;;;;;;3.80;1.70;;;20.40;59.70;;;;;;5061344;28;20822;-88
2022/10/25 10:56:06;;;;;;;4.93;1.80;;;20.40;60.30;;;;;;5072769;28;20480;-90
2022/10/25 10:58:35;;;;;;;3.60;1.60;;;20.50;59.10;;;;;;5054904;28;20952;-88
2022/10/25 11:01:05;;;;;;;3.10;1.30;;;20.60;59.00;;;;;;5083762;28;20556;-89
2022/10/25 11:03:46;;;;;;;4.10;1.80;;;20.60;58.80;;;;;;5079844;28;20474;-90
2022/10/25 11:06:17;;;;;;;2.37;1.60;;;20.50;58.90;;;;;;5069951;28;20933;-89
2022/10/25 11:08:46;;;;;;;2.13;1.20;;;20.40;59.40;;;;;;5077707;28;20483;-90
2022/10/25 11:11:17;;;;;;;2.50;1.57;;;20.40;59.50;;;;;;5078245;28;20478;-88
2022/10/25 11:13:52;;;;;;;5.47;1.30;;;20.40;59.20;;;;;;5076296;28;21048;-90
2022/10/25 11:16:41;;;;;;;2.70;1.37;;;20.60;59.30;;;;;;5085541;28;20501;-89
2022/10/25 11:19:43;;;;;;;3.13;1.63;;;20.90;58.10;;;;;;5080708;28;20455;-89
2022/10/25 11:22:28;;;;;;;3.70;1.30;;;21.10;58.40;;;;;;5042754;28;20476;-90
2022/10/25 11:25:15;;;;;;;2.60;1.30;;;21.10;57.00;;;;;;5061355;28;20471;-90
2022/10/25 11:27:56;;;;;;;2.07;1.13;;;20.90;56.90;;;;;;5077958;28;20452;-90
2022/10/25 11:30:27;;;;;;;2.93;1.50;;;21.00;57.40;;;;;;5059254;28;20459;-90
2022/10/25 11:33:20;;;;;;;6.80;1.47;;;21.10;58.10;;;;;;5076525;28;20475;-90
2022/10/25 11:36:10;;;;;;;2.70;1.17;;;21.20;56.40;;;;;;5084280;28;20476;-89
2022/10/25 11:38:49;;;;;;;3.07;1.30;;;21.60;56.10;;;;;;5058772;28;20432;-89
2022/10/25 11:41:27;;;;;;;2.90;1.30;;;21.60;55.60;;;;;;5059758;28;20490;-89
2022/10/25 11:44:09;;;;;;;2.60;1.30;;;21.50;56.10;;;;;;5061023;28;20458;-87
2022/10/25 11:46:44;;;;;;;3.63;1.40;;;21.30;54.60;;;;;;5076808;28;21677;-89
2022/10/25 11:49:26;;;;;;;3.23;1.70;;;21.00;55.70;;;;;;5073768;28;20960;-89
2022/10/25 11:52:09;;;;;;;1.80;1.03;;;21.00;55.80;;;;;;5076220;28;20473;-89
2022/10/25 11:54:44;;;;;;;3.70;1.27;;;20.90;56.30;;;;;;5072153;28;20543;-89
2022/10/25 11:57:18;;;;;;;3.03;1.00;;;21.00;56.00;;;;;;5073492;28;20447;-88
2022/10/25 11:59:58;;;;;;;2.40;1.00;;;21.00;55.20;;;;;;5074069;28;20439;-88
2022/10/25 12:02:51;;;;;;;1.50;1.10;;;20.80;54.80;;;;;;5063745;28;20440;-89
2022/10/25 12:05:28;;;;;;;3.17;1.17;;;20.70;54.90;;;;;;5060129;28;21027;-89
2022/10/25 12:08:07;;;;;;;1.93;0.93;;;20.70;54.90;;;;;;5075464;28;20869;-89
2022/10/25 12:10:37;;;;;;;1.60;1.50;;;20.90;54.50;;;;;;5073540;28;21390;-89
2022/10/25 12:13:11;;;;;;;2.57;1.20;;;20.90;53.40;;;;;;5058088;28;21179;-89
2022/10/25 12:15:42;;;;;;;2.60;1.10;;;21.10;54.20;;;;;;5046563;28;20483;-88
2022/10/25 12:18:14;;;;;;;1.57;1.03;;;21.50;53.80;;;;;;5074205;28;20449;-89
2022/10/25 12:20:43;;;;;;;3.33;1.43;;;21.80;52.40;;;;;;5079109;28;20443;-89
2022/10/25 12:23:16;;;;;;;4.40;1.83;;;22.00;51.50;;;;;;5074117;28;20456;-88
2022/10/25 12:25:46;;;;;;;4.40;1.00;;;22.40;51.80;;;;;;5072566;28;20472;-89
2022/10/25 12:28:27;;;;;;;3.73;1.60;;;22.70;51.30;;;;;;5074698;28;20440;-89
2022/10/25 12:31:00;;;;;;;1.80;0.90;;;22.80;49.70;;;;;;5074245;28;21287;-89
2022/10/25 12:33:34;;;;;;;0.93;0.80;;;22.80;50.10;;;;;;5075192;28;21254;-89
2022/10/25 12:36:04;;;;;;;1.00;0.80;;;23.00;49.70;;;;;;5058473;28;20466;-88
2022/10/25 12:38:34;;;;;;;2.13;1.00;;;23.00;49.30;;;;;;5078146;28;20441;-89
2022/10/25 12:41:08;;;;;;;2.10;1.03;;;22.90;48.40;;;;;;5074890;28;20451;-89
2022/10/25 12:43:43;;;;;;;2.20;0.90;;;22.90;48.50;;;;;;5072621;28;20449;-88
2022/10/25 12:46:34;;;;;;;5.43;1.00;;;22.70;47.90;;;;;;5074134;28;20940;-88
2022/10/25 12:49:38;;;;;;;2.30;1.43;;;22.40;48.80;;;;;;5073897;28;20444;-90
2022/10/25 12:52:31;;;;;;;2.23;1.47;;;22.20;49.60;;;;;;5061421;28;20476;-88
2022/10/25 12:55:40;;;;;;;2.57;1.27;;;22.40;50.80;;;;;;5051553;28;20521;-89
2022/10/25 12:58:25;;;;;;;4.27;1.37;;;22.30;50.00;;;;;;5069943;28;20448;-88
2022/10/25 13:01:06;;;;;;;4.13;1.20;;;22.10;50.20;;;;;;5059313;28;20458;-88
2022/10/25 13:04:02;;;;;;;2.20;1.10;;;22.20;50.60;;;;;;5074599;28;20464;-88
2022/10/25 13:06:33;;;;;;;2.80;1.00;;;22.00;51.50;;;;;;5068438;28;20482;-88